Time;durP1;ratioP1;P1;durP2;ratioP2;P2;SDS_P1;SDS_P2;PMS_P1;PMS_P2;Temp;Humidity;BMP_temperature;BMP_pressure;BME280_temperature;BME280_humidity;BME280_pressure;Samples;Min_cycle;Max_cycle;Signal;HPM_P1;HPM_P2
2021/05/04 00:02:17;;;;;;;0.00;0.00;;;8.00;99.90;;;;;;5067313;28;20584;-78
2021/05/04 00:04:42;;;;;;;0.20;0.20;;;8.10;99.90;;;;;;5083208;28;20633;-79
2021/05/04 00:07:08;;;;;;;0.20;0.20;;;8.10;99.90;;;;;;5067491;28;20259;-78
2021/05/04 00:09:34;;;;;;;0.50;0.50;;;8.00;99.90;;;;;;5083440;28;20224;-80
2021/05/04 00:11:59;;;;;;;2.33;1.50;;;8.10;99.90;;;;;;5073887;28;20217;-79
2021/05/04 00:14:27;;;;;;;0.20;0.20;;;8.20;99.90;;;;;;5081828;28;20218;-80
2021/05/04 00:16:53;;;;;;;0.10;0.10;;;8.30;99.90;;;;;;5067053;28;20195;-80
2021/05/04 00:19:18;;;;;;;0.17;0.17;;;8.30;99.90;;;;;;5080186;28;20192;-78
2021/05/04 00:21:44;;;;;;;0.20;0.20;;;8.50;99.90;;;;;;5074269;28;20202;-80
2021/05/04 00:24:09;;;;;;;0.13;0.13;;;8.60;99.90;;;;;;5075250;28;20192;-79
2021/05/04 00:26:35;;;;;;;0.30;0.30;;;8.70;99.90;;;;;;5078663;28;20192;-79
2021/05/04 00:29:01;;;;;;;0.13;0.13;;;8.70;99.90;;;;;;5069399;28;20309;-80
2021/05/04 00:31:26;;;;;;;0.40;0.40;;;8.70;99.90;;;;;;5067585;28;20209;-79
2021/05/04 00:33:55;;;;;;;0.20;0.20;;;8.70;99.90;;;;;;5070320;28;20214;-80
2021/05/04 00:36:22;;;;;;;0.20;0.20;;;8.70;99.90;;;;;;5084825;28;20191;-78
2021/05/04 00:38:48;;;;;;;0.30;0.30;;;8.70;99.90;;;;;;5074651;28;20280;-80
2021/05/04 00:41:14;;;;;;;0.20;0.20;;;8.90;99.90;;;;;;5059944;28;20212;-79
2021/05/04 00:43:39;;;;;;;0.23;0.20;;;8.90;99.90;;;;;;5070145;28;20190;-79
2021/05/04 00:46:05;;;;;;;0.20;0.20;;;8.90;99.90;;;;;;5092865;28;20247;-79
2021/05/04 00:48:31;;;;;;;0.27;0.27;;;9.00;99.90;;;;;;5075194;28;20222;-80
2021/05/04 00:51:00;;;;;;;0.30;0.30;;;8.80;99.90;;;;;;5062610;28;20669;-79
2021/05/04 00:53:26;;;;;;;0.20;0.20;;;8.80;99.90;;;;;;5075014;28;20789;-79
2021/05/04 00:55:52;;;;;;;0.20;0.20;;;8.70;99.90;;;;;;5066592;28;20241;-79
2021/05/04 00:58:17;;;;;;;1.30;0.30;;;8.80;99.90;;;;;;5067704;28;20195;-80
2021/05/04 01:00:43;;;;;;;0.40;0.40;;;8.70;99.90;;;;;;5068622;28;20267;-80
2021/05/04 01:03:10;;;;;;;0.20;0.20;;;8.70;99.90;;;;;;5071387;28;20806;-80
2021/05/04 01:05:36;;;;;;;0.93;0.50;;;8.80;99.90;;;;;;5057609;28;20195;-78
2021/05/04 01:08:02;;;;;;;0.10;0.10;;;8.70;99.90;;;;;;5062018;28;20218;-80
2021/05/04 01:10:27;;;;;;;0.20;0.20;;;8.70;99.90;;;;;;5088797;28;20191;-80
2021/05/04 01:12:53;;;;;;;0.20;0.20;;;8.70;99.90;;;;;;5057795;28;20635;-80
2021/05/04 01:15:19;;;;;;;0.20;0.20;;;8.50;99.90;;;;;;5058545;28;20207;-80
2021/05/04 01:17:45;;;;;;;0.07;0.07;;;8.70;99.90;;;;;;5074858;28;20211;-80
2021/05/04 01:20:11;;;;;;;0.20;0.20;;;8.70;99.90;;;;;;5078872;28;20188;-79
2021/05/04 01:22:37;;;;;;;0.17;0.17;;;8.80;99.90;;;;;;5079523;28;20741;-78
2021/05/04 01:25:05;;;;;;;0.30;0.30;;;8.70;99.90;;;;;;5075303;28;20206;-77
2021/05/04 01:27:31;;;;;;;0.40;0.40;;;8.60;99.90;;;;;;5093475;28;20194;-79
2021/05/04 01:29:56;;;;;;;0.27;0.27;;;8.60;99.90;;;;;;5082095;28;20187;-78
2021/05/04 01:32:22;;;;;;;0.10;0.10;;;8.60;99.90;;;;;;5090962;28;20206;-79
2021/05/04 01:34:47;;;;;;;0.10;0.10;;;8.80;99.90;;;;;;5092299;28;20218;-79
2021/05/04 01:37:13;;;;;;;0.10;0.10;;;8.60;99.90;;;;;;5066921;28;20189;-78
2021/05/04 01:39:47;;;;;;;0.10;0.10;;;8.70;99.90;;;;;;5060698;28;20194;-80
2021/05/04 01:42:14;;;;;;;0.00;0.00;;;8.60;99.90;;;;;;5078606;28;20203;-78
2021/05/04 01:44:41;;;;;;;0.57;0.57;;;8.60;99.90;;;;;;5068004;28;20196;-79
2021/05/04 01:47:07;;;;;;;0.20;0.20;;;8.60;99.90;;;;;;5088701;28;20607;-79
2021/05/04 01:49:33;;;;;;;0.13;0.13;;;8.70;99.90;;;;;;5072735;28;20204;-79
2021/05/04 01:52:01;;;;;;;0.37;0.33;;;8.80;99.90;;;;;;5065242;28;20634;-78
2021/05/04 01:54:27;;;;;;;0.37;0.37;;;8.90;99.90;;;;;;5062973;28;20199;-78
2021/05/04 01:56:55;;;;;;;0.33;0.33;;;8.60;99.90;;;;;;5095473;28;20547;-80
2021/05/04 01:59:22;;;;;;;0.37;0.33;;;8.60;99.90;;;;;;5081269;28;20180;-79
2021/05/04 02:01:48;;;;;;;0.23;0.23;;;8.60;99.90;;;;;;5085346;28;20199;-78
2021/05/04 02:04:14;;;;;;;0.17;0.17;;;8.70;99.90;;;;;;5062435;28;20185;-79
2021/05/04 02:06:40;;;;;;;0.10;0.10;;;8.90;99.90;;;;;;5064590;28;20245;-79
2021/05/04 02:09:08;;;;;;;0.10;0.10;;;9.00;99.90;;;;;;5058397;28;20797;-80
2021/05/04 02:11:33;;;;;;;0.30;0.30;;;9.00;99.90;;;;;;5088865;28;20232;-79
2021/05/04 02:13:59;;;;;;;0.20;0.20;;;9.10;99.90;;;;;;5060483;28;20238;-79
2021/05/04 02:16:26;;;;;;;0.20;0.20;;;9.20;99.90;;;;;;5082371;28;20173;-79
2021/05/04 02:18:52;;;;;;;0.93;0.90;;;9.30;99.90;;;;;;5076224;28;20214;-80
2021/05/04 02:21:17;;;;;;;0.30;0.13;;;9.10;99.90;;;;;;5063253;28;20205;-79
2021/05/04 02:23:44;;;;;;;0.10;0.10;;;9.10;99.90;;;;;;5081526;28;20180;-79
2021/05/04 02:26:12;;;;;;;0.57;0.23;;;9.20;99.90;;;;;;5059808;28;20206;-80
2021/05/04 02:28:38;;;;;;;0.20;0.20;;;9.30;99.90;;;;;;5087066;28;20668;-79
2021/05/04 02:31:03;;;;;;;0.43;0.43;;;9.30;99.90;;;;;;5072109;28;20274;-79
2021/05/04 02:33:29;;;;;;;0.00;0.00;;;9.20;99.90;;;;;;5076074;28;20221;-79
2021/05/04 02:35:56;;;;;;;0.10;0.10;;;9.20;99.90;;;;;;5065856;28;20176;-79
2021/05/04 02:38:22;;;;;;;0.13;0.13;;;9.10;99.90;;;;;;5079825;28;20190;-79
2021/05/04 02:40:48;;;;;;;0.13;0.13;;;8.70;99.90;;;;;;5066966;28;20675;-79
2021/05/04 02:43:14;;;;;;;0.47;0.30;;;8.70;99.90;;;;;;5087079;28;20186;-79
2021/05/04 02:45:39;;;;;;;0.30;0.30;;;8.70;99.90;;;;;;5056183;28;20587;-79
2021/05/04 02:48:05;;;;;;;0.33;0.33;;;8.70;99.90;;;;;;5063691;28;20199;-78
2021/05/04 02:50:31;;;;;;;0.17;0.17;;;8.90;99.90;;;;;;5082052;28;20616;-80
2021/05/04 02:52:56;;;;;;;0.13;0.13;;;9.10;99.90;;;;;;5078672;28;20213;-80
2021/05/04 02:55:22;;;;;;;0.13;0.13;;;9.20;99.90;;;;;;5088816;28;20207;-80
2021/05/04 02:57:49;;;;;;;0.53;0.27;;;9.30;99.90;;;;;;5072134;28;20198;-80
2021/05/04 03:00:15;;;;;;;0.10;0.10;;;9.40;99.90;;;;;;5065453;28;20217;-79
2021/05/04 03:02:40;;;;;;;0.20;0.20;;;9.50;99.90;;;;;;5070478;28;20223;-80
2021/05/04 03:05:06;;;;;;;0.40;0.37;;;9.60;99.90;;;;;;5088532;28;20548;-80
2021/05/04 03:07:32;;;;;;;0.57;0.57;;;9.70;99.90;;;;;;5062523;28;20199;-79
2021/05/04 03:09:57;;;;;;;0.70;0.67;;;9.70;99.90;;;;;;5071864;28;20191;-78
2021/05/04 03:12:23;;;;;;;0.30;0.30;;;9.80;99.90;;;;;;5067856;28;20211;-78
2021/05/04 03:14:49;;;;;;;0.57;0.40;;;9.90;99.90;;;;;;5100278;28;20214;-80
2021/05/04 03:17:14;;;;;;;0.17;0.17;;;9.90;99.90;;;;;;5062913;28;20214;-78
2021/05/04 03:19:40;;;;;;;0.20;0.20;;;9.90;99.90;;;;;;5065655;28;20817;-78
2021/05/04 03:22:06;;;;;;;0.10;0.10;;;10.00;99.90;;;;;;5081763;28;20201;-78
2021/05/04 03:24:31;;;;;;;0.20;0.20;;;10.00;99.90;;;;;;5074963;28;20192;-79
2021/05/04 03:26:57;;;;;;;0.20;0.20;;;10.00;99.90;;;;;;5093503;28;20618;-82
2021/05/04 03:29:22;;;;;;;0.40;0.40;;;9.90;99.90;;;;;;5087661;28;20191;-80
2021/05/04 03:31:48;;;;;;;0.20;0.20;;;9.90;99.90;;;;;;5088907;28;20226;-80
2021/05/04 03:34:13;;;;;;;0.23;0.20;;;9.90;99.90;;;;;;5062054;28;20203;-80
2021/05/04 03:36:39;;;;;;;0.23;0.23;;;9.90;99.90;;;;;;5083017;28;20637;-81
2021/05/04 03:39:05;;;;;;;0.17;0.17;;;10.00;99.90;;;;;;5063967;28;20245;-79
2021/05/04 03:41:30;;;;;;;0.63;0.63;;;10.00;99.90;;;;;;5064366;28;20234;-81
2021/05/04 03:43:56;;;;;;;0.97;0.97;;;9.90;99.90;;;;;;5079147;28;20273;-81
2021/05/04 03:46:22;;;;;;;0.27;0.27;;;9.60;99.90;;;;;;5058225;28;20319;-81
2021/05/04 03:48:47;;;;;;;0.20;0.20;;;9.70;99.90;;;;;;5056222;28;20279;-79
2021/05/04 03:51:13;;;;;;;0.67;0.33;;;9.80;99.90;;;;;;5071996;28;20208;-79
2021/05/04 03:53:40;;;;;;;0.27;0.27;;;10.00;99.90;;;;;;5070112;28;20813;-81
2021/05/04 03:56:06;;;;;;;0.23;0.17;;;10.10;99.90;;;;;;5060908;28;20193;-81
2021/05/04 03:58:32;;;;;;;0.23;0.23;;;10.20;99.90;;;;;;5067948;28;20218;-81
2021/05/04 04:00:58;;;;;;;0.00;0.00;;;10.30;99.90;;;;;;5087914;28;20204;-81
2021/05/04 04:03:24;;;;;;;0.77;0.43;;;10.40;99.90;;;;;;5061322;28;20606;-80
2021/05/04 04:05:49;;;;;;;0.10;0.10;;;10.50;99.90;;;;;;5058625;28;20188;-81
2021/05/04 04:08:15;;;;;;;0.40;0.40;;;10.50;99.90;;;;;;5079457;28;20192;-80
2021/05/04 04:10:41;;;;;;;0.60;0.53;;;10.50;99.90;;;;;;5066329;28;20187;-80
2021/05/04 04:13:07;;;;;;;0.20;0.20;;;10.60;99.90;;;;;;5088601;28;20183;-81
2021/05/04 04:15:33;;;;;;;0.23;0.23;;;10.70;99.90;;;;;;5081673;28;20277;-81
2021/05/04 04:17:59;;;;;;;0.87;0.30;;;10.70;99.90;;;;;;5072074;28;20184;-80
2021/05/04 04:20:25;;;;;;;0.93;0.20;;;10.70;99.90;;;;;;5065214;28;20200;-81
2021/05/04 04:22:51;;;;;;;0.70;0.70;;;10.80;99.90;;;;;;5084702;28;20204;-80
2021/05/04 04:25:17;;;;;;;0.70;0.70;;;10.80;99.90;;;;;;5075893;28;20192;-80
2021/05/04 04:27:42;;;;;;;0.40;0.40;;;10.80;99.90;;;;;;5074776;28;20211;-80
2021/05/04 04:30:09;;;;;;;0.20;0.20;;;10.80;99.90;;;;;;5071050;28;20192;-81
2021/05/04 04:32:35;;;;;;;0.57;0.23;;;10.80;99.90;;;;;;5057935;28;20207;-80
2021/05/04 04:35:00;;;;;;;0.20;0.20;;;10.90;99.90;;;;;;5056075;28;20248;-80
2021/05/04 04:37:26;;;;;;;0.77;0.63;;;10.90;99.90;;;;;;5081146;28;20607;-81
2021/05/04 04:39:52;;;;;;;2.27;0.50;;;11.00;99.90;;;;;;5089806;28;20188;-82
2021/05/04 04:42:18;;;;;;;0.30;0.30;;;11.10;99.90;;;;;;5076104;28;20200;-81
2021/05/04 04:44:43;;;;;;;0.83;0.57;;;11.10;99.90;;;;;;5055903;28;20181;-81
2021/05/04 04:47:11;;;;;;;0.53;0.37;;;11.10;99.90;;;;;;5067298;28;20683;-81
2021/05/04 04:49:36;;;;;;;0.70;0.70;;;11.20;99.90;;;;;;5060141;28;20656;-81
2021/05/04 04:52:02;;;;;;;0.40;0.40;;;11.30;99.90;;;;;;5054696;28;20248;-81
2021/05/04 04:54:28;;;;;;;0.60;0.60;;;11.40;99.90;;;;;;5060795;28;20680;-81
2021/05/04 04:56:53;;;;;;;0.20;0.20;;;11.50;99.90;;;;;;5073446;28;20267;-81
2021/05/04 04:59:19;;;;;;;0.20;0.20;;;11.60;99.90;;;;;;5070687;28;20184;-81
2021/05/04 05:01:44;;;;;;;1.20;0.30;;;11.70;99.90;;;;;;5093147;28;20208;-80
2021/05/04 05:04:10;;;;;;;0.30;0.30;;;11.80;99.90;;;;;;5074395;28;20195;-81
2021/05/04 05:06:36;;;;;;;0.50;0.10;;;11.80;99.90;;;;;;5085293;28;20183;-80
2021/05/04 05:09:07;;;;;;;0.30;0.30;;;11.90;99.90;;;;;;5091700;28;20184;-80
2021/05/04 05:11:32;;;;;;;0.23;0.10;;;11.90;99.90;;;;;;5065578;28;20582;-80
2021/05/04 05:13:58;;;;;;;0.17;0.17;;;12.00;99.90;;;;;;5062850;28;20233;-81
2021/05/04 05:16:23;;;;;;;0.90;0.70;;;12.00;99.90;;;;;;5077162;28;20187;-83
2021/05/04 05:18:51;;;;;;;0.27;0.27;;;12.00;99.90;;;;;;5090696;28;20180;-83
2021/05/04 05:21:17;;;;;;;0.20;0.20;;;12.10;99.90;;;;;;5075121;28;20203;-83
2021/05/04 05:23:46;;;;;;;0.80;0.37;;;12.10;99.90;;;;;;5063879;28;20176;-82
2021/05/04 05:26:12;;;;;;;0.10;0.10;;;12.10;99.90;;;;;;5078906;28;20183;-79
2021/05/04 05:28:41;;;;;;;0.10;0.10;;;12.10;99.90;;;;;;5062272;28;20653;-80
2021/05/04 05:31:06;;;;;;;0.43;0.43;;;12.10;99.90;;;;;;5062573;28;20617;-79
2021/05/04 05:33:32;;;;;;;0.10;0.10;;;12.20;99.90;;;;;;5088762;28;20206;-80
2021/05/04 05:35:58;;;;;;;0.33;0.33;;;12.20;99.90;;;;;;5068696;28;20208;-80
2021/05/04 05:38:24;;;;;;;0.20;0.10;;;12.20;99.90;;;;;;5059412;28;20179;-80
2021/05/04 05:40:49;;;;;;;0.67;0.40;;;12.20;99.90;;;;;;5082830;28;20617;-80
2021/05/04 05:43:15;;;;;;;0.10;0.10;;;12.20;99.90;;;;;;5065233;28;20264;-82
2021/05/04 05:45:40;;;;;;;0.10;0.10;;;12.30;99.90;;;;;;5058185;28;20243;-83
2021/05/04 05:48:06;;;;;;;0.17;0.17;;;12.30;99.90;;;;;;5068126;28;20912;-83
2021/05/04 05:50:32;;;;;;;0.20;0.20;;;12.30;99.90;;;;;;5068786;28;20735;-79
2021/05/04 05:52:58;;;;;;;0.17;0.17;;;12.30;99.90;;;;;;5057260;28;20239;-80
2021/05/04 05:55:24;;;;;;;0.30;0.30;;;12.40;99.90;;;;;;5058735;28;20212;-82
2021/05/04 05:57:50;;;;;;;0.37;0.37;;;12.40;99.90;;;;;;5062209;28;20611;-82
2021/05/04 06:00:16;;;;;;;0.00;0.00;;;12.50;99.90;;;;;;5077788;28;20711;-82
2021/05/04 06:02:42;;;;;;;0.30;0.30;;;12.50;99.90;;;;;;5064922;28;20212;-82
2021/05/04 06:05:08;;;;;;;0.10;0.10;;;12.50;99.90;;;;;;5079230;28;20188;-82
2021/05/04 06:07:34;;;;;;;0.70;0.40;;;12.50;99.90;;;;;;5078613;28;20595;-82
2021/05/04 06:09:59;;;;;;;0.20;0.20;;;12.50;99.90;;;;;;5091781;28;20266;-82
2021/05/04 06:12:25;;;;;;;0.33;0.33;;;12.60;99.90;;;;;;5053809;28;20213;-83
2021/05/04 06:14:50;;;;;;;0.30;0.30;;;12.50;99.90;;;;;;5079898;28;20668;-81
2021/05/04 06:17:16;;;;;;;0.10;0.10;;;12.60;99.90;;;;;;5080195;28;20559;-82
2021/05/04 06:19:41;;;;;;;0.10;0.10;;;12.70;99.90;;;;;;5066330;28;20196;-83
2021/05/04 06:22:07;;;;;;;0.10;0.10;;;12.70;99.90;;;;;;5068922;28;20850;-83
2021/05/04 06:24:33;;;;;;;1.33;0.37;;;12.70;99.90;;;;;;5079784;28;20187;-82
2021/05/04 06:26:58;;;;;;;0.20;0.20;;;12.70;99.90;;;;;;5099031;28;20191;-83
2021/05/04 06:29:24;;;;;;;0.10;0.10;;;12.60;99.90;;;;;;5079262;28;20648;-82
2021/05/04 06:31:56;;;;;;;0.20;0.20;;;12.60;99.90;;;;;;5070822;28;20219;-83
2021/05/04 06:34:22;;;;;;;0.23;0.23;;;12.60;99.90;;;;;;5082277;28;20208;-83
2021/05/04 06:36:47;;;;;;;0.10;0.10;;;12.60;99.90;;;;;;5079168;28;20669;-83
2021/05/04 06:39:13;;;;;;;0.40;0.40;;;12.60;99.90;;;;;;5072114;28;20181;-83
2021/05/04 06:41:38;;;;;;;0.03;0.03;;;12.50;99.90;;;;;;5079941;28;20199;-83
2021/05/04 06:44:05;;;;;;;0.10;0.10;;;12.40;99.90;;;;;;5081098;28;20651;-83
2021/05/04 06:46:31;;;;;;;0.10;0.10;;;12.20;99.90;;;;;;5112727;28;20252;-82
2021/05/04 06:48:58;;;;;;;0.20;0.20;;;12.20;99.90;;;;;;5110347;28;20192;-82
2021/05/04 06:51:23;;;;;;;0.10;0.10;;;12.10;99.90;;;;;;5065006;28;20555;-82
2021/05/04 06:53:49;;;;;;;0.10;0.10;;;11.90;99.90;;;;;;5066819;28;20195;-83
2021/05/04 06:56:15;;;;;;;0.10;0.10;;;11.80;99.90;;;;;;5089331;28;20318;-82
2021/05/04 06:58:41;;;;;;;0.10;0.10;;;11.80;99.90;;;;;;5091688;28;20204;-81
2021/05/04 07:01:06;;;;;;;0.10;0.10;;;11.70;99.90;;;;;;5065252;28;20200;-81
2021/05/04 07:03:32;;;;;;;0.10;0.10;;;11.60;99.90;;;;;;5065168;28;20193;-82
2021/05/04 07:05:59;;;;;;;0.10;0.10;;;11.60;99.90;;;;;;5069035;28;20196;-83
2021/05/04 07:08:24;;;;;;;0.13;0.10;;;11.50;99.90;;;;;;5078460;28;20184;-82
2021/05/04 07:10:50;;;;;;;0.10;0.10;;;11.40;99.90;;;;;;5089652;28;20208;-83
2021/05/04 07:13:19;;;;;;;0.10;0.10;;;11.30;99.90;;;;;;5065214;28;20180;-79
2021/05/04 07:15:45;;;;;;;0.30;0.30;;;11.20;99.90;;;;;;5068912;28;20652;-78
2021/05/04 07:18:12;;;;;;;0.10;0.10;;;11.20;99.90;;;;;;5075063;28;20236;-80
2021/05/04 07:20:38;;;;;;;0.10;0.10;;;11.10;99.90;;;;;;5065854;28;20614;-80
2021/05/04 07:23:08;;;;;;;0.10;0.10;;;11.10;99.90;;;;;;5075864;28;20218;-80
2021/05/04 07:25:34;;;;;;;0.73;0.47;;;11.20;99.90;;;;;;5087371;28;20188;-79
2021/05/04 07:28:00;;;;;;;0.10;0.10;;;11.20;99.90;;;;;;5068788;28;20608;-79
2021/05/04 07:30:26;;;;;;;0.00;0.00;;;11.20;99.90;;;;;;5070220;28;20195;-81
2021/05/04 07:32:51;;;;;;;0.07;0.07;;;11.20;99.90;;;;;;5084809;28;20208;-80
2021/05/04 07:35:17;;;;;;;0.10;0.10;;;11.20;99.90;;;;;;5081543;28;20251;-80
2021/05/04 07:37:43;;;;;;;0.20;0.20;;;11.20;99.90;;;;;;5072811;28;20184;-80
2021/05/04 07:40:09;;;;;;;0.10;0.10;;;11.20;99.90;;;;;;5086019;28;20190;-78
2021/05/04 07:42:35;;;;;;;0.10;0.10;;;11.20;99.90;;;;;;5065617;28;20208;-79
2021/05/04 07:45:01;;;;;;;0.27;0.13;;;11.10;99.90;;;;;;5081671;28;20178;-79
2021/05/04 07:47:26;;;;;;;0.10;0.10;;;11.10;99.90;;;;;;5062918;28;20562;-80
2021/05/04 07:49:52;;;;;;;1.07;0.63;;;11.10;99.90;;;;;;5082490;28;20188;-81
2021/05/04 07:52:18;;;;;;;0.00;0.00;;;11.10;99.90;;;;;;5086713;28;20229;-81
2021/05/04 07:54:43;;;;;;;0.10;0.10;;;11.10;99.90;;;;;;5080867;28;20234;-80
2021/05/04 07:57:09;;;;;;;0.10;0.10;;;11.10;99.90;;;;;;5066197;28;20206;-80
2021/05/04 07:59:35;;;;;;;0.20;0.20;;;11.00;99.90;;;;;;5067978;28;20185;-79
2021/05/04 08:02:02;;;;;;;0.10;0.10;;;11.00;99.90;;;;;;5081692;28;20779;-81
2021/05/04 08:04:29;;;;;;;0.00;0.00;;;11.00;99.90;;;;;;5087119;28;20191;-81
2021/05/04 08:06:56;;;;;;;0.00;0.00;;;11.00;99.90;;;;;;5066533;28;20192;-81
2021/05/04 08:09:22;;;;;;;0.27;0.20;;;11.10;99.90;;;;;;5066783;28;20215;-81
2021/05/04 08:11:47;;;;;;;0.20;0.20;;;11.10;99.90;;;;;;5063496;28;20205;-80
2021/05/04 08:14:13;;;;;;;0.20;0.20;;;11.20;99.90;;;;;;5077222;28;20238;-81
2021/05/04 08:16:39;;;;;;;0.10;0.10;;;11.20;99.90;;;;;;5059391;28;20215;-81
2021/05/04 08:19:27;;;;;;;0.20;0.10;;;11.20;99.90;;;;;;5058214;28;20188;-84
2021/05/04 08:21:53;;;;;;;4.73;0.40;;;11.20;99.90;;;;;;5060793;28;20203;-80
2021/05/04 08:24:19;;;;;;;0.30;0.23;;;11.30;99.90;;;;;;5087754;28;20187;-80
2021/05/04 08:26:45;;;;;;;0.20;0.10;;;11.30;99.90;;;;;;5060492;28;20670;-79
2021/05/04 08:29:11;;;;;;;0.10;0.10;;;11.40;99.90;;;;;;5070016;28;20569;-80
2021/05/04 08:31:37;;;;;;;0.10;0.10;;;11.30;99.90;;;;;;5086593;28;20207;-80
2021/05/04 08:34:03;;;;;;;0.20;0.20;;;11.20;99.90;;;;;;5063333;28;20590;-79
2021/05/04 08:36:30;;;;;;;0.10;0.10;;;11.30;99.90;;;;;;5086671;28;20185;-81
2021/05/04 08:38:56;;;;;;;0.30;0.30;;;11.40;99.90;;;;;;5071359;28;20199;-81
2021/05/04 08:41:22;;;;;;;0.10;0.10;;;11.40;99.90;;;;;;5074238;28;20232;-81
2021/05/04 08:43:49;;;;;;;0.00;0.00;;;11.40;99.90;;;;;;5079673;28;20819;-81
2021/05/04 08:46:16;;;;;;;0.20;0.20;;;11.40;99.90;;;;;;5064103;28;20251;-81
2021/05/04 08:48:45;;;;;;;0.10;0.10;;;11.40;99.90;;;;;;5075639;28;20203;-81
2021/05/04 08:51:12;;;;;;;0.40;0.10;;;11.40;99.90;;;;;;5059987;28;20209;-79
2021/05/04 08:53:39;;;;;;;0.30;0.30;;;11.50;99.90;;;;;;5067843;28;20196;-82
2021/05/04 08:56:05;;;;;;;0.10;0.10;;;11.50;99.90;;;;;;5080929;28;20193;-79
2021/05/04 08:58:31;;;;;;;0.10;0.10;;;11.50;99.90;;;;;;5085317;28;20268;-79
2021/05/04 09:00:58;;;;;;;0.10;0.10;;;11.50;99.90;;;;;;5060012;28;20216;-79
2021/05/04 09:03:33;;;;;;;0.20;0.13;;;11.50;99.90;;;;;;5068167;28;20222;-80
2021/05/04 09:08:38;;;;;;;0.20;0.20;;;11.50;99.90;;;;;;5091423;28;20188;-79
2021/05/04 09:14:32;;;;;;;0.40;0.20;;;11.50;99.90;;;;;;5084178;28;20251;-80
2021/05/04 09:21:54;;;;;;;0.10;0.10;;;11.30;99.90;;;;;;5077665;28;20677;-80
2021/05/04 09:24:23;;;;;;;0.20;0.20;;;11.20;99.90;;;;;;5061893;28;20271;-80
2021/05/04 09:26:49;;;;;;;0.27;0.20;;;11.30;99.90;;;;;;5060721;28;20184;-79
2021/05/04 09:29:15;;;;;;;0.40;0.40;;;11.30;99.90;;;;;;5077582;28;20196;-79
2021/05/04 09:31:41;;;;;;;0.20;0.20;;;11.30;99.90;;;;;;5096313;28;20214;-80
2021/05/04 09:34:15;;;;;;;0.20;0.20;;;11.30;99.90;;;;;;5072707;28;20215;-80
2021/05/04 09:36:51;;;;;;;0.10;0.10;;;11.20;99.90;;;;;;5060904;28;20266;-79
2021/05/04 09:39:30;;;;;;;0.03;0.03;;;11.20;99.90;;;;;;5074321;28;20188;-79
2021/05/04 09:41:57;;;;;;;0.10;0.10;;;11.10;99.90;;;;;;5055169;28;20692;-79
2021/05/04 09:44:46;;;;;;;0.10;0.10;;;11.10;99.90;;;;;;5061899;28;20180;-80
2021/05/04 09:47:17;;;;;;;0.20;0.20;;;11.10;99.90;;;;;;5066787;28;20553;-80
2021/05/04 09:49:43;;;;;;;0.20;0.20;;;11.00;99.90;;;;;;5061594;28;20185;-80
2021/05/04 09:52:24;;;;;;;0.10;0.10;;;11.10;99.90;;;;;;5067418;28;20219;-78
2021/05/04 09:54:50;;;;;;;0.27;0.27;;;11.10;99.90;;;;;;5060895;28;20207;-80
2021/05/04 09:57:33;;;;;;;6.10;0.60;;;11.10;99.90;;;;;;5062874;28;20518;-80
2021/05/04 09:59:59;;;;;;;1.80;1.70;;;11.20;99.90;;;;;;5094145;28;20225;-79
2021/05/04 10:02:24;;;;;;;1.30;0.20;;;11.20;99.90;;;;;;5057466;28;20212;-80
2021/05/04 10:04:52;;;;;;;0.13;0.13;;;11.20;99.90;;;;;;5060393;28;20172;-80
2021/05/04 10:07:19;;;;;;;0.20;0.20;;;11.20;99.90;;;;;;5077620;28;20185;-80
2021/05/04 10:09:45;;;;;;;0.30;0.30;;;11.20;99.90;;;;;;5087273;28;20195;-79
2021/05/04 10:12:12;;;;;;;0.17;0.17;;;11.30;99.90;;;;;;5056739;28;20231;-80
2021/05/04 10:14:40;;;;;;;0.17;0.17;;;11.30;99.90;;;;;;5060879;28;20203;-81
2021/05/04 10:17:08;;;;;;;0.10;0.10;;;11.40;99.90;;;;;;5057728;28;20282;-81
2021/05/04 10:19:36;;;;;;;1.70;1.60;;;11.40;99.90;;;;;;5059215;28;20190;-80
2021/05/04 10:22:04;;;;;;;0.73;0.73;;;11.30;99.90;;;;;;5086922;28;20253;-81
2021/05/04 10:24:33;;;;;;;0.10;0.10;;;11.30;99.90;;;;;;5084149;28;20188;-80
2021/05/04 10:27:04;;;;;;;0.10;0.10;;;11.20;99.90;;;;;;5060708;28;20191;-80
2021/05/04 10:29:30;;;;;;;0.20;0.20;;;11.20;99.90;;;;;;5079406;28;20191;-80
2021/05/04 10:31:58;;;;;;;0.10;0.10;;;11.20;99.90;;;;;;5077837;28;20247;-80
2021/05/04 10:34:23;;;;;;;0.10;0.10;;;11.20;99.90;;;;;;5101703;28;20203;-80
2021/05/04 10:36:51;;;;;;;0.13;0.13;;;11.20;99.90;;;;;;5074308;28;20549;-79
2021/05/04 10:39:40;;;;;;;0.20;0.20;;;11.20;99.90;;;;;;5082336;28;20188;-81
2021/05/04 10:42:08;;;;;;;0.73;0.30;;;11.10;99.90;;;;;;5075978;28;20200;-79
2021/05/04 10:44:54;;;;;;;0.33;0.20;;;11.20;99.90;;;;;;5095084;28;20189;-81
2021/05/04 10:47:38;;;;;;;0.00;0.00;;;11.10;99.90;;;;;;5082287;28;20268;-80
2021/05/04 10:50:27;;;;;;;0.10;0.10;;;11.20;99.90;;;;;;5104453;28;20562;-81
2021/05/04 10:52:58;;;;;;;0.20;0.20;;;11.30;99.90;;;;;;5070257;28;20226;-79
2021/05/04 10:55:52;;;;;;;0.30;0.30;;;11.30;99.90;;;;;;5087187;28;20231;-81
2021/05/04 10:58:30;;;;;;;0.10;0.10;;;11.30;99.90;;;;;;5068841;28;20185;-80
2021/05/04 11:01:01;;;;;;;2.63;1.40;;;11.40;99.90;;;;;;5093456;28;20188;-79
2021/05/04 11:03:29;;;;;;;0.13;0.13;;;11.50;99.90;;;;;;5092500;28;20194;-80
2021/05/04 11:06:06;;;;;;;0.10;0.10;;;11.60;99.90;;;;;;5067173;28;20745;-82
2021/05/04 11:08:43;;;;;;;0.30;0.30;;;11.70;99.90;;;;;;5076831;28;20198;-79
2021/05/04 11:11:21;;;;;;;0.10;0.10;;;11.70;99.90;;;;;;5080487;28;20204;-80
2021/05/04 11:13:52;;;;;;;0.10;0.10;;;11.70;99.90;;;;;;5065648;28;20185;-79
2021/05/04 11:16:47;;;;;;;0.20;0.20;;;11.70;99.90;;;;;;5094487;28;20191;-79
2021/05/04 11:19:23;;;;;;;0.10;0.10;;;11.70;99.90;;;;;;5063434;28;20189;-79
2021/05/04 11:22:05;;;;;;;0.20;0.20;;;11.80;99.90;;;;;;5063903;28;20197;-80
2021/05/04 11:24:34;;;;;;;0.20;0.20;;;11.80;99.90;;;;;;5088145;28;20267;-80
2021/05/04 11:27:09;;;;;;;1.20;0.30;;;11.80;99.90;;;;;;5058313;28;20190;-79
2021/05/04 11:29:36;;;;;;;0.20;0.20;;;11.90;99.90;;;;;;5071205;28;20184;-80
2021/05/04 11:32:36;;;;;;;0.17;0.10;;;11.90;99.90;;;;;;5072182;28;20205;-79
2021/05/04 11:35:04;;;;;;;0.17;0.17;;;11.90;99.90;;;;;;5076402;28;20213;-79
2021/05/04 11:37:32;;;;;;;0.50;0.50;;;11.90;99.90;;;;;;5086003;28;20231;-79
2021/05/04 11:40:13;;;;;;;0.10;0.10;;;11.90;99.90;;;;;;5077074;28;20177;-80
2021/05/04 11:42:51;;;;;;;0.10;0.10;;;12.00;99.90;;;;;;5075454;28;20255;-80
2021/05/04 11:45:16;;;;;;;0.10;0.10;;;12.10;99.90;;;;;;5057384;28;20667;-80
2021/05/04 11:47:54;;;;;;;0.10;0.10;;;12.00;99.90;;;;;;5065663;28;20193;-79
2021/05/04 11:50:28;;;;;;;0.40;0.40;;;12.10;99.90;;;;;;5079977;28;20187;-80
2021/05/04 11:52:57;;;;;;;0.10;0.10;;;12.30;99.90;;;;;;5063546;28;20246;-80
2021/05/04 11:55:24;;;;;;;0.10;0.10;;;12.50;99.90;;;;;;5081229;28;20215;-79
2021/05/04 11:58:02;;;;;;;0.10;0.10;;;12.50;99.90;;;;;;5058331;28;20211;-80
2021/05/04 12:00:30;;;;;;;0.40;0.30;;;12.60;99.90;;;;;;5075006;28;20233;-80
2021/05/04 12:02:55;;;;;;;0.10;0.10;;;12.80;99.90;;;;;;5067145;28;20209;-80
2021/05/04 12:05:29;;;;;;;0.20;0.20;;;12.80;99.90;;;;;;5076428;28;20238;-80
2021/05/04 12:07:55;;;;;;;0.37;0.10;;;12.80;99.90;;;;;;5085738;28;20275;-80
2021/05/04 12:10:34;;;;;;;7.33;0.37;;;13.00;99.90;;;;;;5067777;28;20214;-79
2021/05/04 12:13:02;;;;;;;4.03;0.40;;;13.20;99.90;;;;;;5071039;28;20221;-78
2021/05/04 12:15:30;;;;;;;0.10;0.10;;;13.10;99.90;;;;;;5080232;28;20204;-80
2021/05/04 12:18:00;;;;;;;0.30;0.30;;;13.00;99.90;;;;;;5077895;28;20234;-79
2021/05/04 12:20:36;;;;;;;0.10;0.10;;;13.20;99.90;;;;;;5065920;28;20216;-80
2021/05/04 12:23:06;;;;;;;0.10;0.10;;;13.20;99.90;;;;;;5076160;28;20193;-80
2021/05/04 12:25:46;;;;;;;0.50;0.47;;;13.10;99.90;;;;;;5065100;28;20629;-79
2021/05/04 12:28:18;;;;;;;0.10;0.10;;;13.20;99.90;;;;;;5075138;28;20617;-81
2021/05/04 12:30:45;;;;;;;0.20;0.10;;;13.20;99.90;;;;;;5066720;28;20569;-79
2021/05/04 12:33:11;;;;;;;0.10;0.10;;;13.20;99.90;;;;;;5089461;28;20272;-80
2021/05/04 12:35:50;;;;;;;0.10;0.10;;;13.20;99.90;;;;;;5088549;28;20211;-80
2021/05/04 12:41:23;;;;;;;0.50;0.50;;;13.10;99.90;;;;;;5076199;28;20181;-79
2021/05/04 12:44:08;;;;;;;0.10;0.10;;;12.90;99.90;;;;;;5073252;28;20220;-79
2021/05/04 12:46:34;;;;;;;0.10;0.10;;;12.90;99.90;;;;;;5063745;28;20259;-80
2021/05/04 12:49:01;;;;;;;0.17;0.17;;;13.00;99.90;;;;;;5085007;28;20180;-79
2021/05/04 12:51:31;;;;;;;0.10;0.10;;;13.10;99.90;;;;;;5078051;28;20198;-80
2021/05/04 12:54:14;;;;;;;0.10;0.10;;;13.30;99.90;;;;;;5080711;28;20653;-80
2021/05/04 12:56:39;;;;;;;0.10;0.10;;;13.50;99.90;;;;;;5088013;28;20185;-80
2021/05/04 12:59:07;;;;;;;0.10;0.10;;;13.80;99.90;;;;;;5100031;28;20549;-79
2021/05/04 13:01:49;;;;;;;0.10;0.10;;;13.90;99.90;;;;;;5081483;28;20198;-80
2021/05/04 13:04:33;;;;;;;0.10;0.10;;;14.00;99.90;;;;;;5074996;28;20277;-79
2021/05/04 13:07:04;;;;;;;0.10;0.10;;;14.10;99.90;;;;;;5065186;28;20201;-79
2021/05/04 13:09:45;;;;;;;0.20;0.10;;;14.00;99.90;;;;;;5090731;28;20319;-78